Time;durP1;ratioP1;P1;durP2;ratioP2;P2;SDS_P1;SDS_P2;PMS_P1;PMS_P2;Temp;Humidity;BMP_temperature;BMP_pressure;BME280_temperature;BME280_humidity;BME280_pressure;Samples;Min_cycle;Max_cycle;Signal;HPM_P1;HPM_P2
2022/03/21 00:01:05;;;;;;;38.20;34.28;;;7.60;99.90;;;;;;5070180;28;20075;-75
2022/03/21 00:03:32;;;;;;;37.70;33.67;;;7.60;99.90;;;;;;5077120;28;20074;-76
2022/03/21 00:06:00;;;;;;;37.08;33.15;;;7.60;99.90;;;;;;5081574;28;20071;-75
2022/03/21 00:08:28;;;;;;;35.78;31.98;;;7.60;99.90;;;;;;5083264;28;20130;-75
2022/03/21 00:10:56;;;;;;;37.85;33.92;;;7.60;99.90;;;;;;5061201;28;20193;-76
2022/03/21 00:13:23;;;;;;;35.55;31.30;;;7.70;99.90;;;;;;5062778;28;20045;-75
2022/03/21 00:15:52;;;;;;;36.28;32.58;;;7.70;99.90;;;;;;5061839;28;20538;-76
2022/03/21 00:18:20;;;;;;;37.60;32.67;;;7.70;99.90;;;;;;5044770;28;20045;-75
2022/03/21 00:20:50;;;;;;;35.50;31.70;;;7.70;99.90;;;;;;5043729;28;20044;-76
2022/03/21 00:23:17;;;;;;;36.97;33.08;;;7.70;99.90;;;;;;5062304;28;20053;-75
2022/03/21 00:25:44;;;;;;;38.22;34.15;;;7.60;99.90;;;;;;5062140;28;20131;-75
2022/03/21 00:28:11;;;;;;;40.17;33.20;;;7.60;99.90;;;;;;5044509;28;20052;-76
2022/03/21 00:30:42;;;;;;;37.28;33.38;;;7.60;99.90;;;;;;5049404;28;20613;-74
2022/03/21 00:33:10;;;;;;;38.00;32.20;;;7.60;99.90;;;;;;5073607;28;20181;-75
2022/03/21 00:35:37;;;;;;;37.55;33.47;;;7.50;99.90;;;;;;5082182;28;20036;-76
2022/03/21 00:38:05;;;;;;;35.95;32.22;;;7.40;99.90;;;;;;5064581;28;20070;-76
2022/03/21 00:40:31;;;;;;;37.30;33.20;;;7.30;99.90;;;;;;5080935;28;20044;-76
2022/03/21 00:42:59;;;;;;;36.00;32.30;;;7.20;99.90;;;;;;5063387;28;20052;-77
2022/03/21 00:45:26;;;;;;;36.63;32.85;;;7.20;99.90;;;;;;5053242;28;20052;-76
2022/03/21 00:47:54;;;;;;;37.88;33.60;;;7.20;99.90;;;;;;5044337;28;20130;-77
2022/03/21 00:50:22;;;;;;;35.92;32.28;;;7.20;99.90;;;;;;5043628;28;20048;-75
2022/03/21 00:52:55;;;;;;;36.58;32.75;;;7.10;99.90;;;;;;5062027;28;20060;-75
2022/03/21 00:55:26;;;;;;;38.88;33.70;;;7.10;99.90;;;;;;5060826;28;20086;-75
2022/03/21 00:57:53;;;;;;;37.00;33.10;;;7.00;99.90;;;;;;5062299;28;20737;-75
2022/03/21 01:00:24;;;;;;;37.65;33.20;;;7.00;99.90;;;;;;5065338;28;20074;-75
2022/03/21 01:02:52;;;;;;;36.45;32.60;;;7.00;99.90;;;;;;5049621;28;20056;-75
2022/03/21 01:05:20;;;;;;;36.08;32.33;;;7.00;99.90;;;;;;5060161;28;20059;-76
2022/03/21 01:07:47;;;;;;;37.72;33.83;;;7.00;99.90;;;;;;5060285;28;20044;-76
2022/03/21 01:10:16;;;;;;;35.78;32.15;;;7.00;99.90;;;;;;5060732;28;20060;-75
2022/03/21 01:12:43;;;;;;;34.35;30.75;;;7.00;99.90;;;;;;5060160;28;20044;-75
2022/03/21 01:15:14;;;;;;;34.83;31.15;;;7.00;99.90;;;;;;5042790;28;20139;-76
2022/03/21 01:17:44;;;;;;;35.17;31.48;;;7.00;99.90;;;;;;5061670;28;20079;-76
2022/03/21 01:20:13;;;;;;;34.40;31.05;;;6.90;99.90;;;;;;5025613;28;20044;-75
2022/03/21 01:22:42;;;;;;;36.60;32.72;;;6.90;99.90;;;;;;5059967;28;20060;-75
2022/03/21 01:25:10;;;;;;;36.65;32.40;;;6.90;99.90;;;;;;5043355;28;20166;-76
2022/03/21 01:27:38;;;;;;;34.58;30.95;;;6.90;99.90;;;;;;5061825;28;20076;-75
2022/03/21 01:30:11;;;;;;;34.90;31.38;;;6.90;99.90;;;;;;5061807;28;20082;-76
2022/03/21 01:32:42;;;;;;;36.15;32.28;;;6.90;99.90;;;;;;5053066;28;20417;-75
2022/03/21 01:35:11;;;;;;;36.15;32.30;;;6.90;99.90;;;;;;5080117;28;20509;-75
2022/03/21 01:37:38;;;;;;;36.60;32.88;;;6.90;99.90;;;;;;5061755;28;20039;-75
2022/03/21 01:40:05;;;;;;;35.72;31.75;;;6.80;99.90;;;;;;5060086;28;20052;-75
2022/03/21 01:42:32;;;;;;;38.53;32.75;;;6.80;99.90;;;;;;5065058;22;20051;-75
2022/03/21 01:44:59;;;;;;;35.85;31.92;;;6.80;99.90;;;;;;5052450;28;20076;-76
2022/03/21 01:47:26;;;;;;;33.95;30.40;;;6.70;99.90;;;;;;5055846;28;20118;-76
2022/03/21 01:49:52;;;;;;;36.28;32.38;;;6.70;99.90;;;;;;5057918;28;20064;-75
2022/03/21 01:52:21;;;;;;;37.45;33.45;;;6.70;99.90;;;;;;5058755;28;20490;-75
2022/03/21 01:57:34;;;;;;;36.35;32.25;;;6.60;99.90;;;;;;5070750;28;20045;-75
2022/03/21 02:00:02;;;;;;;36.53;32.42;;;6.50;99.90;;;;;;5077190;28;20055;-75
2022/03/21 02:02:38;;;;;;;35.65;32.05;;;6.50;99.90;;;;;;5067782;28;20594;-75
2022/03/21 02:05:06;;;;;;;30.90;27.67;;;6.50;99.90;;;;;;5076249;28;20139;-74
2022/03/21 02:07:33;;;;;;;35.67;32.00;;;6.40;99.90;;;;;;5077660;28;20130;-75
2022/03/21 02:10:02;;;;;;;36.60;32.67;;;6.40;99.90;;;;;;5080014;28;20083;-75
2022/03/21 02:12:30;;;;;;;35.13;31.50;;;6.40;99.90;;;;;;5078063;28;20059;-74
2022/03/21 02:14:57;;;;;;;35.83;31.55;;;6.30;99.90;;;;;;5077087;28;20095;-75
2022/03/21 02:17:26;;;;;;;34.72;31.13;;;6.30;99.90;;;;;;5071029;28;20618;-75
2022/03/21 02:19:54;;;;;;;34.83;31.33;;;6.40;99.90;;;;;;5077867;28;20047;-75
2022/03/21 02:22:29;;;;;;;36.75;32.35;;;6.40;99.90;;;;;;5079734;28;20426;-75
2022/03/21 02:25:21;;;;;;;32.90;29.55;;;6.30;99.90;;;;;;5080274;28;20152;-75
2022/03/21 02:27:49;;;;;;;35.10;31.40;;;6.30;99.90;;;;;;5082324;28;20072;-75
2022/03/21 02:30:17;;;;;;;33.50;29.98;;;6.20;99.90;;;;;;5076034;28;20081;-75
2022/03/21 02:32:45;;;;;;;34.30;30.90;;;6.20;99.90;;;;;;5071328;28;20056;-74
2022/03/21 02:35:14;;;;;;;35.63;32.08;;;6.20;99.90;;;;;;5060953;28;20241;-75
2022/03/21 02:37:45;;;;;;;34.70;31.10;;;6.20;99.90;;;;;;5063122;28;20647;-75
2022/03/21 02:40:13;;;;;;;32.90;29.50;;;6.10;99.90;;;;;;5065095;28;20404;-74
2022/03/21 02:42:40;;;;;;;34.53;30.95;;;6.00;99.90;;;;;;5082337;28;20509;-75
2022/03/21 02:45:07;;;;;;;34.88;31.45;;;6.00;99.90;;;;;;5078308;28;20084;-75
2022/03/21 02:47:34;;;;;;;34.40;30.92;;;6.00;99.90;;;;;;5077977;28;20047;-75
2022/03/21 02:50:02;;;;;;;34.47;30.75;;;5.90;99.90;;;;;;5063299;28;20049;-75
2022/03/21 02:52:30;;;;;;;33.90;30.35;;;5.90;99.90;;;;;;5062607;28;20429;-75
2022/03/21 02:54:57;;;;;;;33.65;30.30;;;5.90;99.90;;;;;;5071726;28;20426;-75
2022/03/21 02:57:24;;;;;;;35.42;31.65;;;5.80;99.90;;;;;;5083728;28;20508;-75
2022/03/21 02:59:51;;;;;;;34.70;31.08;;;5.80;99.90;;;;;;5079593;28;20219;-75
2022/03/21 03:02:17;;;;;;;34.35;30.83;;;5.80;99.90;;;;;;5068254;28;20048;-75
2022/03/21 03:04:44;;;;;;;35.08;31.38;;;5.80;99.90;;;;;;5062237;28;20264;-75
2022/03/21 03:07:11;;;;;;;35.22;31.52;;;5.80;99.90;;;;;;5062123;28;20048;-75
2022/03/21 03:09:40;;;;;;;35.25;31.65;;;5.70;99.90;;;;;;5061686;28;20056;-74
2022/03/21 03:12:10;;;;;;;34.47;31.02;;;5.70;99.90;;;;;;5062325;28;20122;-75
2022/03/21 03:14:37;;;;;;;36.05;32.15;;;5.60;99.90;;;;;;5066288;28;20073;-75
2022/03/21 03:17:06;;;;;;;34.58;31.05;;;5.50;99.90;;;;;;5072631;28;20559;-75
2022/03/21 03:19:32;;;;;;;35.53;31.83;;;5.40;99.90;;;;;;5064633;28;20072;-75
2022/03/21 03:22:00;;;;;;;35.90;32.10;;;5.20;99.90;;;;;;5081047;28;20135;-75
2022/03/21 03:24:28;;;;;;;35.13;31.45;;;5.20;99.90;;;;;;5081569;28;20051;-75
2022/03/21 03:26:55;;;;;;;36.13;32.42;;;5.10;99.90;;;;;;5082609;28;20048;-75
2022/03/21 03:29:22;;;;;;;35.30;31.85;;;5.00;99.90;;;;;;5061712;28;20130;-75
2022/03/21 03:31:48;;;;;;;35.65;32.00;;;4.90;99.90;;;;;;5070260;28;20040;-75
2022/03/21 03:34:15;;;;;;;36.75;32.45;;;4.90;99.90;;;;;;5081984;28;20511;-74
2022/03/21 03:36:42;;;;;;;37.22;32.28;;;4.80;99.90;;;;;;5081519;28;20040;-75
2022/03/21 03:39:09;;;;;;;35.40;31.70;;;4.70;99.90;;;;;;5079971;28;20341;-75
2022/03/21 03:41:36;;;;;;;35.00;31.48;;;4.60;99.90;;;;;;5081737;28;20637;-75
2022/03/21 03:44:03;;;;;;;38.40;34.50;;;4.60;99.90;;;;;;5082718;28;20138;-75
2022/03/21 03:46:29;;;;;;;36.40;32.58;;;4.60;99.90;;;;;;5070550;28;20052;-75
2022/03/21 03:48:56;;;;;;;36.83;32.83;;;4.50;99.90;;;;;;5068001;28;20052;-75
2022/03/21 03:51:23;;;;;;;36.83;33.03;;;4.40;99.90;;;;;;5081370;28;20052;-75
2022/03/21 03:53:50;;;;;;;34.80;31.25;;;4.50;99.90;;;;;;5081238;28;20113;-75
2022/03/21 03:56:21;;;;;;;35.80;32.15;;;4.40;99.90;;;;;;5081063;28;20048;-75
2022/03/21 03:58:48;;;;;;;35.28;31.48;;;4.40;99.90;;;;;;5081857;28;20074;-74
2022/03/21 04:01:14;;;;;;;35.47;31.77;;;4.40;99.90;;;;;;5055477;28;20131;-75
2022/03/21 04:03:47;;;;;;;36.97;32.65;;;4.40;99.90;;;;;;5066139;28;20059;-75
2022/03/21 04:06:15;;;;;;;37.28;33.17;;;4.30;99.90;;;;;;5061043;28;20051;-74
2022/03/21 04:08:43;;;;;;;35.60;32.05;;;4.50;99.90;;;;;;5079973;28;20043;-74
2022/03/21 04:11:11;;;;;;;35.42;31.27;;;4.60;99.90;;;;;;5082275;28;20071;-75
2022/03/21 04:13:37;;;;;;;34.92;31.50;;;4.50;99.90;;;;;;5080622;28;20329;-74
2022/03/21 04:16:05;;;;;;;38.05;32.00;;;4.40;99.90;;;;;;5073787;28;20076;-75
2022/03/21 04:18:32;;;;;;;35.63;31.92;;;4.40;99.90;;;;;;5073611;28;20564;-74
2022/03/21 04:21:19;;;;;;;34.78;31.40;;;4.30;99.90;;;;;;5079352;28;20214;-74
2022/03/21 04:23:46;;;;;;;38.03;32.42;;;4.40;99.90;;;;;;5078705;28;20529;-74
2022/03/21 04:26:12;;;;;;;34.72;31.10;;;4.50;99.90;;;;;;5080807;28;20571;-75
2022/03/21 04:28:39;;;;;;;36.67;32.47;;;4.40;99.90;;;;;;5079964;28;20244;-75
2022/03/21 04:31:06;;;;;;;35.85;32.35;;;4.40;99.90;;;;;;5071069;28;20136;-75
2022/03/21 04:33:33;;;;;;;35.22;31.60;;;4.30;99.90;;;;;;5063874;28;20052;-75
2022/03/21 04:35:59;;;;;;;33.38;30.05;;;4.20;99.90;;;;;;5062246;28;20110;-74
2022/03/21 04:38:26;;;;;;;41.13;32.97;;;4.10;99.90;;;;;;5060768;28;20071;-74
2022/03/21 04:40:53;;;;;;;39.08;31.67;;;4.00;99.90;;;;;;5062389;28;20048;-74
2022/03/21 04:43:20;;;;;;;36.80;33.10;;;3.90;99.90;;;;;;5077980;28;20494;-75
2022/03/21 04:45:48;;;;;;;34.85;31.40;;;3.80;99.90;;;;;;5071636;28;20493;-75
2022/03/21 04:48:15;;;;;;;36.33;32.63;;;3.70;99.90;;;;;;5072494;28;20047;-75
2022/03/21 04:50:43;;;;;;;35.38;31.77;;;3.70;99.90;;;;;;5077370;28;20504;-75
2022/03/21 04:53:11;;;;;;;36.03;31.70;;;3.80;99.90;;;;;;5062946;28;20080;-75
2022/03/21 04:55:41;;;;;;;37.00;32.72;;;3.80;99.90;;;;;;5080348;28;20497;-75
2022/03/21 04:58:09;;;;;;;35.88;32.35;;;3.80;99.90;;;;;;5080844;28;20479;-75
2022/03/21 05:00:37;;;;;;;38.08;32.70;;;3.80;99.90;;;;;;5071771;28;20237;-75
2022/03/21 05:03:07;;;;;;;35.75;31.83;;;3.70;99.90;;;;;;5067076;28;20399;-75
2022/03/21 05:05:42;;;;;;;35.78;31.70;;;3.60;99.90;;;;;;5059544;28;20149;-75
2022/03/21 05:08:09;;;;;;;35.25;31.48;;;3.70;99.90;;;;;;5059469;28;20521;-74
2022/03/21 05:10:36;;;;;;;36.08;32.25;;;3.90;99.90;;;;;;5068099;28;20233;-75
2022/03/21 05:13:04;;;;;;;34.38;30.85;;;4.10;99.90;;;;;;5079827;28;20349;-74
2022/03/21 05:15:31;;;;;;;35.28;31.60;;;4.30;99.90;;;;;;5073766;28;20064;-74
2022/03/21 05:17:58;;;;;;;41.10;33.05;;;4.20;99.90;;;;;;5073735;28;20128;-75
2022/03/21 05:20:25;;;;;;;35.28;31.63;;;4.20;99.90;;;;;;5079048;28;20059;-74
2022/03/21 05:31:10;;;;;;;35.72;32.03;;;3.90;99.90;;;;;;5068012;28;20056;-75
2022/03/21 05:36:25;;;;;;;34.35;30.95;;;4.00;99.90;;;;;;5079900;28;20362;-74
2022/03/21 05:38:53;;;;;;;34.85;31.35;;;4.10;99.90;;;;;;5077657;28;20044;-74
2022/03/21 05:41:19;;;;;;;34.78;31.27;;;4.10;99.90;;;;;;5069801;28;20737;-75
2022/03/21 05:43:46;;;;;;;35.90;32.28;;;4.20;99.90;;;;;;5062405;28;20088;-75
2022/03/21 05:46:14;;;;;;;36.28;32.38;;;4.20;99.90;;;;;;5068348;28;20101;-75
2022/03/21 05:48:50;;;;;;;37.38;32.88;;;4.30;99.90;;;;;;5066126;28;20052;-75
2022/03/21 05:51:19;;;;;;;38.65;34.78;;;4.30;99.90;;;;;;5061825;28;20252;-74
2022/03/21 05:53:46;;;;;;;39.67;34.88;;;4.40;99.90;;;;;;5079286;28;20044;-74
2022/03/21 05:56:14;;;;;;;39.83;36.03;;;4.30;99.90;;;;;;5077247;28;20430;-75
2022/03/21 05:58:42;;;;;;;38.92;35.08;;;4.30;99.90;;;;;;5061716;28;20108;-74
2022/03/21 06:01:11;;;;;;;39.75;35.53;;;4.40;99.90;;;;;;5070184;28;20040;-75
2022/03/21 06:03:39;;;;;;;39.08;34.85;;;4.40;99.90;;;;;;5077078;28;20143;-75
2022/03/21 06:06:06;;;;;;;40.40;36.53;;;4.40;99.90;;;;;;5082292;28;20287;-75
2022/03/21 06:08:33;;;;;;;36.70;33.38;;;4.40;99.90;;;;;;5081507;28;20265;-75
2022/03/21 06:11:08;;;;;;;38.00;34.25;;;4.50;99.90;;;;;;5074039;28;20506;-75
2022/03/21 06:13:36;;;;;;;37.42;33.70;;;4.50;99.90;;;;;;5068034;28;20048;-75
2022/03/21 06:16:07;;;;;;;39.58;35.55;;;4.50;99.90;;;;;;5071348;28;20279;-75
2022/03/21 06:18:36;;;;;;;38.88;35.05;;;4.50;99.90;;;;;;5076707;28;20127;-75
2022/03/21 06:21:05;;;;;;;38.95;34.83;;;4.60;99.90;;;;;;5082748;28;20350;-75
2022/03/21 06:23:32;;;;;;;39.47;35.10;;;4.50;99.90;;;;;;5083213;28;20385;-75
2022/03/21 06:26:00;;;;;;;38.22;34.45;;;4.50;99.90;;;;;;5082822;28;20274;-75
2022/03/21 06:28:28;;;;;;;41.40;37.00;;;4.60;99.90;;;;;;5080456;28;20075;-75
2022/03/21 06:30:56;;;;;;;38.13;34.47;;;4.50;99.90;;;;;;5070803;28;20083;-75
2022/03/21 06:33:25;;;;;;;37.97;33.88;;;4.60;99.90;;;;;;5069678;28;20068;-75
2022/03/21 06:35:53;;;;;;;38.63;34.88;;;4.60;99.90;;;;;;5060562;28;20079;-75
2022/03/21 06:38:20;;;;;;;39.50;35.45;;;4.60;99.90;;;;;;5070444;28;20391;-75
2022/03/21 06:40:47;;;;;;;36.25;32.90;;;4.70;99.90;;;;;;5070566;28;20037;-75
2022/03/21 06:43:15;;;;;;;39.10;35.17;;;4.80;99.90;;;;;;5074771;28;20583;-75
2022/03/21 06:45:43;;;;;;;37.95;34.20;;;4.90;99.90;;;;;;5075832;28;20071;-75
2022/03/21 06:48:10;;;;;;;38.88;35.08;;;4.90;99.90;;;;;;5068944;28;20049;-75
2022/03/21 06:50:37;;;;;;;39.47;35.55;;;5.00;99.90;;;;;;5061956;28;20429;-75
2022/03/21 06:53:04;;;;;;;39.83;35.15;;;5.20;99.90;;;;;;5061058;28;20552;-75
2022/03/21 06:55:31;;;;;;;38.58;34.97;;;5.30;99.90;;;;;;5061839;28;20044;-75
2022/03/21 06:57:58;;;;;;;39.97;36.13;;;5.30;99.90;;;;;;5066930;28;20056;-75
2022/03/21 07:00:25;;;;;;;40.15;36.35;;;5.40;99.90;;;;;;5077173;28;20122;-76
2022/03/21 07:02:52;;;;;;;42.53;38.38;;;5.50;99.90;;;;;;5077658;28;20277;-75
2022/03/21 07:05:19;;;;;;;40.25;36.28;;;5.50;99.90;;;;;;5082425;28;20466;-75
2022/03/21 07:07:47;;;;;;;41.47;37.30;;;5.60;99.90;;;;;;5081222;28;20040;-75
2022/03/21 07:10:13;;;;;;;40.60;36.92;;;5.80;99.90;;;;;;5077180;28;20071;-75
2022/03/21 07:12:40;;;;;;;40.70;36.92;;;5.90;99.90;;;;;;5073870;28;20224;-75
2022/03/21 07:15:08;;;;;;;40.45;36.78;;;6.00;99.90;;;;;;5076734;28;20040;-75
2022/03/21 07:17:34;;;;;;;39.95;36.25;;;6.10;99.90;;;;;;5072297;28;20129;-75
2022/03/21 07:20:02;;;;;;;38.13;34.60;;;6.20;99.90;;;;;;5081450;28;20417;-75
2022/03/21 07:22:29;;;;;;;39.97;36.22;;;6.30;99.90;;;;;;5081456;28;20083;-75
2022/03/21 07:24:56;;;;;;;39.53;35.40;;;6.40;99.90;;;;;;5064373;28;20063;-75
2022/03/21 07:27:23;;;;;;;39.65;35.60;;;6.40;99.90;;;;;;5080204;28;20297;-76
2022/03/21 07:29:50;;;;;;;39.25;35.55;;;6.50;99.90;;;;;;5078162;28;20044;-75
2022/03/21 07:32:17;;;;;;;40.15;36.42;;;6.60;99.90;;;;;;5068656;28;20177;-75
2022/03/21 07:34:44;;;;;;;40.00;35.70;;;6.70;99.90;;;;;;5073508;28;20078;-75
2022/03/21 07:37:11;;;;;;;40.88;36.85;;;6.90;99.90;;;;;;5062763;28;20048;-75
2022/03/21 07:39:39;;;;;;;40.83;36.85;;;6.90;99.90;;;;;;5079264;28;20076;-75
2022/03/21 07:42:07;;;;;;;40.53;36.38;;;7.00;99.90;;;;;;5073315;28;20077;-76
2022/03/21 07:47:22;;;;;;;39.05;35.38;;;7.30;99.90;;;;;;5033139;28;20109;-72
2022/03/21 07:49:53;;;;;;;41.97;37.90;;;7.50;99.90;;;;;;5051207;28;20047;-70
2022/03/21 07:52:21;;;;;;;41.78;37.80;;;7.70;99.90;;;;;;5053266;28;20753;-71
2022/03/21 07:54:53;;;;;;;40.60;36.70;;;8.00;99.90;;;;;;5044495;28;20041;-71
2022/03/21 07:57:21;;;;;;;41.28;37.03;;;8.30;99.90;;;;;;5011675;28;20042;-71
2022/03/21 07:59:48;;;;;;;40.92;37.33;;;8.60;99.90;;;;;;5012491;28;20045;-70
2022/03/21 08:02:19;;;;;;;41.58;37.80;;;8.60;99.90;;;;;;5032231;28;20052;-71
2022/03/21 08:04:47;;;;;;;41.95;38.10;;;8.60;99.90;;;;;;5030812;28;20510;-72
2022/03/21 08:07:19;;;;;;;41.80;38.05;;;8.70;99.90;;;;;;5028936;28;20060;-71
2022/03/21 08:09:46;;;;;;;42.08;38.03;;;8.90;99.90;;;;;;5027983;28;20168;-72
2022/03/21 08:12:13;;;;;;;41.45;37.60;;;9.00;99.90;;;;;;5031033;28;20333;-71
2022/03/21 08:14:40;;;;;;;41.03;37.03;;;9.10;99.90;;;;;;5031756;28;20045;-71
2022/03/21 08:17:08;;;;;;;43.35;39.17;;;9.30;99.90;;;;;;5029959;28;20047;-72
2022/03/21 08:19:35;;;;;;;40.45;36.83;;;9.50;99.90;;;;;;5032376;28;20053;-71
2022/03/21 08:22:07;;;;;;;42.38;38.20;;;9.40;99.90;;;;;;5029846;28;20117;-70
2022/03/21 08:24:35;;;;;;;40.60;36.80;;;9.70;99.90;;;;;;5030981;28;20061;-71
2022/03/21 08:27:04;;;;;;;40.95;36.97;;;10.10;99.90;;;;;;5029206;28;20118;-71
2022/03/21 08:29:32;;;;;;;39.25;35.53;;;10.20;99.90;;;;;;5029181;28;20132;-73
2022/03/21 08:32:00;;;;;;;41.00;37.67;;;10.00;99.90;;;;;;5028690;28;20046;-69
2022/03/21 08:34:27;;;;;;;42.15;38.20;;;10.00;99.90;;;;;;5029919;28;20106;-72
2022/03/21 08:36:54;;;;;;;43.10;39.40;;;10.20;99.90;;;;;;5028298;28;20044;-72
2022/03/21 08:39:21;;;;;;;42.42;38.90;;;10.10;99.90;;;;;;5031109;28;20049;-71
2022/03/21 08:41:48;;;;;;;44.00;40.00;;;10.10;99.90;;;;;;5028522;28;20255;-71
2022/03/21 08:44:15;;;;;;;43.65;39.47;;;10.10;99.90;;;;;;5032041;28;20045;-70
2022/03/21 08:46:41;;;;;;;49.17;40.38;;;10.20;99.90;;;;;;5029612;28;20419;-71
2022/03/21 08:49:23;;;;;;;43.42;39.80;;;10.60;99.90;;;;;;5031276;28;20041;-70
2022/03/21 08:51:59;;;;;;;44.50;40.67;;;11.10;99.90;;;;;;5031858;28;20041;-70
2022/03/21 08:54:27;;;;;;;44.08;39.72;;;11.00;99.90;;;;;;5031372;28;20045;-73
2022/03/21 08:56:54;;;;;;;43.17;39.38;;;11.20;99.90;;;;;;5012720;28;20048;-70
2022/03/21 08:59:21;;;;;;;44.65;40.80;;;11.40;99.90;;;;;;5029140;28;20508;-71
2022/03/21 09:01:48;;;;;;;42.35;38.70;;;11.40;99.90;;;;;;5026107;28;20060;-71
2022/03/21 09:04:15;;;;;;;41.33;37.97;;;11.50;99.90;;;;;;5031130;28;20053;-71
2022/03/21 09:06:42;;;;;;;44.15;39.90;;;11.80;99.90;;;;;;5029837;28;20045;-74
2022/03/21 09:09:10;;;;;;;43.17;39.47;;;11.60;99.90;;;;;;5028982;28;20037;-71
2022/03/21 09:11:37;;;;;;;42.85;39.20;;;11.80;99.90;;;;;;5030990;28;20049;-70
2022/03/21 09:14:06;;;;;;;44.53;40.47;;;11.70;99.90;;;;;;5030932;28;20037;-72
2022/03/21 09:16:34;;;;;;;42.95;39.05;;;11.80;99.90;;;;;;5028568;28;20053;-72
2022/03/21 09:19:01;;;;;;;43.03;39.22;;;11.90;99.60;;;;;;5029493;28;20076;-71
2022/03/21 09:21:28;;;;;;;43.03;39.35;;;12.00;99.90;;;;;;5013394;28;20080;-70
2022/03/21 09:23:55;;;;;;;43.05;39.15;;;12.10;99.30;;;;;;5032378;28;20059;-69
2022/03/21 09:26:22;;;;;;;43.38;39.67;;;12.10;99.50;;;;;;5026911;28;20044;-74
2022/03/21 09:28:49;;;;;;;43.35;39.45;;;12.30;99.40;;;;;;5030098;28;20056;-70
2022/03/21 09:31:16;;;;;;;41.13;37.15;;;12.10;99.10;;;;;;5027774;28;20045;-70
2022/03/21 09:34:03;;;;;;;41.42;37.60;;;11.90;99.50;;;;;;5033470;28;20041;-71
2022/03/21 09:36:30;;;;;;;41.00;37.15;;;12.00;99.90;;;;;;5031841;28;20053;-71
2022/03/21 09:38:57;;;;;;;39.42;36.30;;;12.20;99.80;;;;;;5030969;28;20056;-70
2022/03/21 09:41:26;;;;;;;40.47;36.60;;;12.50;99.00;;;;;;5031644;28;20067;-70
2022/03/21 09:43:55;;;;;;;42.70;38.88;;;12.70;99.20;;;;;;5027709;28;20049;-73
2022/03/21 09:46:23;;;;;;;38.97;35.47;;;12.60;98.50;;;;;;5010850;28;20076;-74
2022/03/21 09:48:55;;;;;;;41.42;37.42;;;12.70;99.30;;;;;;5029133;28;20049;-72
2022/03/21 09:51:25;;;;;;;42.30;38.55;;;12.40;98.50;;;;;;5021869;28;20072;-74
2022/03/21 09:53:54;;;;;;;41.80;38.03;;;12.50;98.90;;;;;;5028825;28;20049;-74
2022/03/21 09:56:22;;;;;;;47.90;39.03;;;12.50;98.80;;;;;;5028795;28;20053;-75
2022/03/21 09:58:49;;;;;;;42.90;39.00;;;12.70;99.10;;;;;;5031102;28;20049;-71
2022/03/21 10:01:16;;;;;;;42.47;38.70;;;12.60;98.80;;;;;;5028077;28;20060;-72
2022/03/21 10:03:44;;;;;;;43.03;39.08;;;12.80;99.00;;;;;;5031054;28;20059;-71
2022/03/21 10:06:28;;;;;;;43.75;39.72;;;13.10;98.80;;;;;;5027995;28;20447;-72
2022/03/21 10:09:13;;;;;;;41.42;37.67;;;13.00;98.40;;;;;;5031012;28;20067;-71
2022/03/21 10:11:53;;;;;;;42.22;38.17;;;13.40;99.10;;;;;;5031446;28;20352;-73
2022/03/21 10:14:35;;;;;;;40.97;37.08;;;13.60;98.10;;;;;;5030985;28;20075;-73
2022/03/21 10:17:08;;;;;;;42.00;38.00;;;13.40;97.90;;;;;;5029211;28;20041;-72
2022/03/21 10:19:42;;;;;;;49.40;38.05;;;13.60;98.20;;;;;;5029477;28;20081;-71
2022/03/21 10:22:15;;;;;;;42.08;38.10;;;13.90;99.00;;;;;;5029549;28;20049;-69
2022/03/21 10:24:44;;;;;;;40.05;36.45;;;13.80;97.50;;;;;;5031403;28;20475;-71
2022/03/21 10:27:27;;;;;;;40.60;36.83;;;13.70;98.10;;;;;;5030788;28;20041;-74
2022/03/21 10:30:00;;;;;;;41.85;37.65;;;13.80;98.10;;;;;;5028172;28;20521;-72
2022/03/21 10:32:35;;;;;;;41.65;37.65;;;13.80;98.20;;;;;;5031264;28;20037;-71
2022/03/21 10:35:07;;;;;;;;;;;14.00;98.20;;;;;;5032187;28;20456;-71
2022/03/21 10:37:44;;;;;;;41.30;37.33;;;14.20;97.80;;;;;;5029839;28;19928;-73
2022/03/21 10:40:26;;;;;;;40.22;36.38;;;14.70;98.10;;;;;;5031043;28;20052;-71
2022/03/21 10:42:59;;;;;;;41.17;37.17;;;14.50;97.30;;;;;;5029667;28;20402;-70
2022/03/21 10:45:47;;;;;;;41.50;37.60;;;14.50;97.10;;;;;;5030143;28;20045;-72
2022/03/21 10:48:20;;;;;;;40.88;36.78;;;14.60;97.70;;;;;;5031159;28;20053;-71
2022/03/21 10:50:49;;;;;;;46.95;42.90;;;14.80;97.50;;;;;;5015858;28;20029;-74
2022/03/21 10:53:24;;;;;;;46.10;41.70;;;14.90;98.00;;;;;;5035493;28;20052;-70
2022/03/21 10:56:00;;;;;;;;;;;15.00;97.40;;;;;;5037814;28;20045;-73
2022/03/21 10:58:36;;;;;;;44.83;40.78;;;15.00;97.10;;;;;;5035570;28;19921;-71
2022/03/21 11:01:25;;;;;;;47.28;43.13;;;15.10;96.70;;;;;;5032269;28;20048;-70
2022/03/21 11:03:57;;;;;;;48.13;43.75;;;15.20;97.50;;;;;;5033752;28;20551;-71
2022/03/21 11:06:25;;;;;;;48.13;42.60;;;15.40;97.90;;;;;;5029601;28;20087;-69
2022/03/21 11:08:52;;;;;;;49.13;44.75;;;15.70;97.00;;;;;;5031243;28;20056;-70
2022/03/21 11:11:20;;;;;;;48.92;44.60;;;15.60;96.20;;;;;;5029861;28;20045;-71
2022/03/21 11:13:49;;;;;;;48.78;43.67;;;15.50;96.10;;;;;;5033865;28;20056;-71
2022/03/21 11:16:19;;;;;;;49.70;45.05;;;15.50;96.40;;;;;;5032513;28;20144;-70
2022/03/21 11:18:48;;;;;;;47.90;43.58;;;15.30;96.90;;;;;;5031148;28;20103;-71
2022/03/21 11:21:19;;;;;;;49.72;45.28;;;15.50;97.00;;;;;;5012940;28;20115;-72
2022/03/21 11:23:47;;;;;;;49.10;44.63;;;15.60;96.50;;;;;;5013279;28;20053;-70
2022/03/21 11:26:19;;;;;;;47.28;43.17;;;15.90;96.10;;;;;;5011725;28;20049;-71
2022/03/21 11:28:58;;;;;;;48.78;43.97;;;16.10;96.80;;;;;;5013148;28;20223;-70
2022/03/21 11:31:36;;;;;;;49.72;45.40;;;16.20;95.50;;;;;;5024550;28;20045;-74
2022/03/21 11:34:40;;;;;;;50.35;45.83;;;16.30;95.40;;;;;;5033438;28;20060;-72
2022/03/21 11:37:30;;;;;;;48.97;44.58;;;15.90;95.20;;;;;;5027730;28;20325;-72
2022/03/21 11:40:34;;;;;;;49.63;45.30;;;15.70;95.40;;;;;;5030830;28;20040;-71
2022/03/21 11:43:19;;;;;;;49.40;45.03;;;15.60;96.20;;;;;;5011007;28;20477;-71
2022/03/21 11:45:54;;;;;;;48.13;44.00;;;15.60;96.60;;;;;;5021832;28;20055;-71
2022/03/21 11:48:22;;;;;;;;;;;16.00;95.90;;;;;;5032527;28;20063;-71
2022/03/21 11:50:56;;;;;;;49.63;44.58;;;16.00;95.30;;;;;;5031524;28;19924;-70
2022/03/21 11:53:33;;;;;;;49.47;45.20;;;16.20;96.50;;;;;;5030505;28;20055;-69
2022/03/21 11:56:00;;;;;;;48.33;43.72;;;16.40;94.50;;;;;;5031194;28;20076;-72
2022/03/21 11:58:42;;;;;;;49.25;44.20;;;16.30;94.60;;;;;;5032854;28;20375;-72
2022/03/21 12:01:21;;;;;;;49.22;44.72;;;16.20;95.60;;;;;;5028598;28;20325;-70
2022/03/21 12:03:48;;;;;;;49.83;44.97;;;16.40;94.70;;;;;;5031284;28;20684;-69
2022/03/21 12:06:30;;;;;;;48.88;44.15;;;16.70;94.50;;;;;;5033101;28;20758;-70
2022/03/21 12:09:19;;;;;;;47.40;42.78;;;16.40;93.40;;;;;;5031981;28;20049;-71
2022/03/21 12:11:50;;;;;;;49.33;44.97;;;16.20;94.80;;;;;;5030727;28;20198;-69
2022/03/21 12:14:28;;;;;;;50.00;45.50;;;16.30;94.20;;;;;;5038770;28;20183;-70
2022/03/21 12:17:01;;;;;;;50.33;45.65;;;16.10;94.70;;;;;;5034343;28;20206;-70
2022/03/21 12:20:02;;;;;;;47.95;43.63;;;16.40;93.80;;;;;;5029476;28;20049;-69
2022/03/21 12:22:49;;;;;;;45.40;41.05;;;16.70;94.60;;;;;;5014659;28;20079;-71
2022/03/21 12:25:20;;;;;;;47.22;42.97;;;16.30;93.90;;;;;;5028347;28;20041;-70
2022/03/21 12:27:57;;;;;;;47.85;43.33;;;16.00;94.70;;;;;;5032574;28;20136;-72
2022/03/21 12:30:27;;;;;;;49.53;44.90;;;16.00;94.50;;;;;;5028725;28;20313;-71
2022/03/21 12:33:10;;;;;;;49.35;44.58;;;16.20;94.40;;;;;;5030885;28;20235;-71
2022/03/21 12:35:40;;;;;;;48.35;43.40;;;16.40;94.70;;;;;;5030076;28;20040;-72
2022/03/21 12:38:17;;;;;;;47.42;43.08;;;16.70;93.90;;;;;;5014194;28;20049;-71
2022/03/21 12:40:47;;;;;;;49.38;44.88;;;16.70;94.30;;;;;;5028274;28;20056;-71
2022/03/21 12:43:16;;;;;;;48.80;44.22;;;16.60;93.50;;;;;;5032127;28;20076;-71
2022/03/21 12:45:44;;;;;;;49.17;44.45;;;16.30;94.20;;;;;;5027971;28;20053;-71
2022/03/21 12:48:17;;;;;;;46.70;42.35;;;16.30;93.90;;;;;;5013759;28;20068;-75
2022/03/21 12:50:48;;;;;;;46.83;42.42;;;16.60;94.00;;;;;;5028581;28;20041;-71
2022/03/21 12:53:21;;;;;;;48.38;43.70;;;16.30;93.50;;;;;;5032514;28;20044;-72
2022/03/21 12:56:01;;;;;;;47.15;42.85;;;16.40;94.10;;;;;;5031336;28;20053;-70
2022/03/21 12:58:28;;;;;;;48.05;43.35;;;16.70;93.60;;;;;;5031229;28;20041;-73
2022/03/21 13:00:57;;;;;;;47.28;42.67;;;16.80;94.20;;;;;;5027628;28;20041;-72
2022/03/21 13:03:24;;;;;;;48.13;43.47;;;16.70;93.00;;;;;;5030796;28;20280;-72